Sturgeon Lake, Minnesota
Current Conditions -  °F | °C
As of 1:13 AM on Saturday 25 Oct 2014 (Local Time) from KMZH Reporting Station
Clear Clear  
Wind Chill: 54°   Ceiling: Unl
Heat Index: 54°   Visibility: 10mi
Dew Point: 34°   Wind: 8mph
Humidity: 47%   Direction: 280°W
Pressure: 29.84"   Gusts: NA
Location:  46.38°N, 92.82°W
Report Text: KMZH 250613Z AUTO 28007KT 10SM CLR 12/01 A2984 RMK AO2
Loading
Personal Weather Stations






























Interactive Weather Map
Tropical Storm Tracking
New forecast layout! Learn more

10-Day Weather Forecast

Advertisements
Track Severe Weather on mobile